Time;durP1;ratioP1;P1;durP2;ratioP2;P2;SDS_P1;SDS_P2;PMS_P1;PMS_P2;Temp;Humidity;BMP_temperature;BMP_pressure;BME280_temperature;BME280_humidity;BME280_pressure;Samples;Min_cycle;Max_cycle;Signal;HPM_P1;HPM_P2
2022/06/30 00:01:23;;;;;;;2.78;2.15;;;;;;;24.18;47.30;101145.78;5064225;28;20426;-59
2022/06/30 00:03:48;;;;;;;2.30;1.95;;;;;;;24.18;47.48;101145.78;5047747;28;20067;-59
2022/06/30 00:06:14;;;;;;;2.30;2.00;;;;;;;23.93;47.30;101104.66;5064417;28;20044;-59
2022/06/30 00:08:39;;;;;;;2.10;1.80;;;;;;;24.17;47.27;101143.25;5065791;28;20021;-60
2022/06/30 00:11:07;;;;;;;2.75;2.20;;;;;;;24.14;47.15;101130.09;5064354;28;20033;-60
2022/06/30 00:13:36;;;;;;;2.40;2.13;;;;;;;24.15;47.00;101135.31;5065716;28;20049;-59
2022/06/30 00:16:02;;;;;;;2.70;2.22;;;;;;;24.14;47.09;101130.94;5064157;28;20031;-59
2022/06/30 00:18:27;;;;;;;2.20;1.70;;;;;;;23.95;46.89;101099.00;5063829;28;20029;-59
2022/06/30 00:20:52;;;;;;;2.38;1.88;;;;;;;24.12;46.98;101132.97;5064385;28;20033;-59
2022/06/30 00:23:17;;;;;;;2.03;1.77;;;;;;;24.11;47.11;101134.03;5064265;28;20362;-59
2022/06/30 00:25:43;;;;;;;2.10;1.83;;;;;;;24.11;46.98;101128.59;5083645;28;20025;-60
2022/06/30 00:28:08;;;;;;;2.88;1.85;;;;;;;23.89;46.98;101094.38;5084136;28;20089;-59
2022/06/30 00:30:33;;;;;;;2.30;1.90;;;;;;;24.09;47.00;101127.97;5084085;28;20048;-59
2022/06/30 00:32:59;;;;;;;2.60;2.13;;;;;;;24.08;47.12;101120.84;5083747;28;20054;-59
2022/06/30 00:35:24;;;;;;;2.63;2.00;;;;;;;23.89;47.09;101089.78;5085271;28;20028;-59
2022/06/30 00:37:49;;;;;;;2.83;2.13;;;;;;;23.88;47.22;101088.13;5084013;28;20055;-59
2022/06/30 00:40:15;;;;;;;2.88;1.85;;;;;;;24.08;46.92;101118.13;5084196;28;20048;-60
2022/06/30 00:42:40;;;;;;;2.47;2.20;;;;;;;24.04;46.94;101105.97;5067242;28;20028;-60
2022/06/30 00:45:06;;;;;;;2.38;1.95;;;;;;;24.08;46.99;101117.28;5085371;28;20050;-60
2022/06/30 00:47:31;;;;;;;4.25;2.50;;;;;;;24.07;46.89;101115.63;5086681;28;20060;-59
2022/06/30 00:49:56;;;;;;;2.58;1.80;;;;;;;24.07;47.06;101110.19;5092254;28;20363;-59
2022/06/30 00:52:24;;;;;;;3.25;2.17;;;;;;;23.71;47.16;101050.59;5090666;28;20122;-60
2022/06/30 00:54:51;;;;;;;2.75;2.20;;;;;;;24.07;47.06;101104.75;5090899;28;20088;-59
2022/06/30 00:57:17;;;;;;;2.20;1.90;;;;;;;24.06;46.99;101105.78;5091602;28;20088;-60
2022/06/30 00:59:44;;;;;;;2.70;1.90;;;;;;;24.06;47.01;101105.78;5090934;28;20050;-59
2022/06/30 01:02:10;;;;;;;2.83;1.80;;;;;;;23.84;47.03;101065.09;5083062;28;20104;-59
2022/06/30 01:04:36;;;;;;;2.00;1.83;;;;;;;24.06;47.12;101103.06;5084221;28;20029;-59
2022/06/30 01:07:02;;;;;;;4.85;2.00;;;;;;;23.82;47.03;101055.47;5079799;28;20021;-59
2022/06/30 01:12:57;;;;;;;2.22;1.98;;;;;;;24.00;47.05;101091.13;5090420;28;20116;-59
2022/06/30 01:14:58;;;;;;;3.88;2.15;;;;;;;24.02;46.90;101102.63;5090877;28;20039;-59
2022/06/30 01:17:24;;;;;;;2.90;2.60;;;;;;;24.01;46.87;101097.41;5090852;28;20024;-60
2022/06/30 01:19:56;;;;;;;2.90;2.00;;;;;;;24.02;47.03;101093.66;5078666;28;20027;-59
2022/06/30 01:22:22;;;;;;;2.45;1.90;;;;;;;23.81;46.86;101068.22;5071312;28;20052;-59
2022/06/30 01:24:47;;;;;;;3.65;2.20;;;;;;;23.97;47.08;101088.81;5071409;28;20025;-60
2022/06/30 01:27:12;;;;;;;2.72;2.13;;;;;;;24.00;46.75;101095.69;5069755;28;20021;-59
2022/06/30 01:29:38;;;;;;;2.67;2.20;;;;;;;23.99;46.87;101092.16;5071419;28;20227;-59
2022/06/30 01:32:04;;;;;;;3.13;2.50;;;;;;;23.99;46.91;101091.31;5069541;28;20048;-60
2022/06/30 01:34:29;;;;;;;3.13;2.50;;;;;;;23.99;46.87;101091.31;5053341;28;20051;-60
2022/06/30 01:36:54;;;;;;;4.10;2.38;;;;;;;23.80;46.92;101058.41;5082453;28;20031;-59
2022/06/30 01:39:20;;;;;;;3.85;2.67;;;;;;;23.80;46.92;101054.84;5091192;28;20401;-60
2022/06/30 01:41:45;;;;;;;3.10;2.30;;;;;;;23.97;46.71;101088.81;5089524;28;20055;-60
2022/06/30 01:44:11;;;;;;;2.42;2.22;;;;;;;23.97;46.98;101080.66;5091019;28;20029;-59
2022/06/30 01:46:36;;;;;;;2.92;2.30;;;;;;;23.73;46.87;101046.63;5090627;28;20020;-59
2022/06/30 01:49:02;;;;;;;4.03;2.50;;;;;;;23.96;46.92;101084.41;5091266;28;20043;-59
2022/06/30 01:51:27;;;;;;;3.17;2.20;;;;;;;23.76;47.05;101051.69;5089807;28;20059;-59
2022/06/30 01:53:53;;;;;;;4.47;3.08;;;;;;;23.96;46.78;101081.72;5090006;28;20021;-60
2022/06/30 01:56:18;;;;;;;4.80;2.25;;;;;;;23.93;46.77;101076.66;5073116;28;20513;-59
2022/06/30 01:58:43;;;;;;;2.50;2.30;;;;;;;23.93;46.81;101080.22;5089142;28;20028;-60
2022/06/30 02:01:09;;;;;;;3.58;2.60;;;;;;;23.93;46.75;101076.66;5086423;28;20017;-59
2022/06/30 02:03:34;;;;;;;4.50;2.97;;;;;;;23.93;46.83;101076.66;5087511;28;20055;-59
2022/06/30 02:05:59;;;;;;;3.63;2.60;;;;;;;23.74;46.81;101047.47;5086525;28;20063;-59
2022/06/30 02:08:25;;;;;;;3.03;2.72;;;;;;;23.88;46.80;101074.53;5087479;28;20027;-59
2022/06/30 02:10:50;;;;;;;2.70;2.45;;;;;;;23.91;46.68;101079.56;5076269;28;20035;-59
2022/06/30 02:13:15;;;;;;;4.15;2.22;;;;;;;23.71;46.63;101050.59;5067456;28;20355;-59
2022/06/30 02:15:40;;;;;;;3.03;2.70;;;;;;;23.90;46.78;101077.03;5067467;28;20132;-60
2022/06/30 02:18:07;;;;;;;2.60;2.40;;;;;;;23.89;47.00;101078.94;5067190;28;20032;-59
2022/06/30 02:20:34;;;;;;;4.07;2.70;;;;;;;23.88;46.84;101088.13;5066394;28;20062;-59
2022/06/30 02:23:01;;;;;;;3.03;2.40;;;;;;;23.85;46.94;101088.50;5067492;28;20055;-59
2022/06/30 02:25:28;;;;;;;3.00;2.70;;;;;;;23.86;46.86;101082.03;5066013;28;20028;-59
2022/06/30 02:27:54;;;;;;;2.80;2.22;;;;;;;23.78;46.79;101070.47;5049328;28;20029;-59
2022/06/30 02:30:20;;;;;;;3.33;2.90;;;;;;;23.80;46.79;101076.56;5067165;28;20024;-59
2022/06/30 02:32:46;;;;;;;3.22;2.92;;;;;;;23.85;46.78;101080.34;5065350;28;20025;-59
2022/06/30 02:35:11;;;;;;;3.95;2.72;;;;;;;23.83;46.84;101079.72;5066405;28;20021;-59
2022/06/30 02:37:36;;;;;;;3.15;2.85;;;;;;;23.83;46.85;101076.16;5066870;28;20348;-59
2022/06/30 02:40:03;;;;;;;3.22;2.92;;;;;;;23.83;46.79;101078.88;5048939;28;20017;-59
2022/06/30 02:42:28;;;;;;;3.22;2.80;;;;;;;23.63;46.69;101054.25;5065342;28;20024;-59
2022/06/30 02:44:53;;;;;;;3.47;3.17;;;;;;;23.58;46.73;101045.88;5066976;28;20047;-59
2022/06/30 02:47:19;;;;;;;3.83;2.97;;;;;;;23.81;46.52;101081.78;5065065;28;20549;-60
2022/06/30 02:49:44;;;;;;;4.15;2.92;;;;;;;23.57;46.86;101050.44;5065870;28;20052;-60
2022/06/30 02:52:10;;;;;;;3.03;2.65;;;;;;;23.77;46.61;101094.06;5066830;28;20024;-60
2022/06/30 02:54:35;;;;;;;4.18;2.80;;;;;;;23.79;46.80;101093.88;5065632;28;20048;-60
2022/06/30 02:57:01;;;;;;;4.93;2.92;;;;;;;23.77;46.75;101083.22;5065356;28;20083;-60
2022/06/30 02:59:26;;;;;;;3.60;3.30;;;;;;;23.58;46.72;101057.56;5065586;28;20025;-60
2022/06/30 03:01:51;;;;;;;3.88;3.30;;;;;;;23.77;46.54;101087.81;5066253;28;20032;-60
2022/06/30 03:04:17;;;;;;;3.88;2.95;;;;;;;23.77;46.55;101095.97;5066918;28;20033;-60
2022/06/30 03:06:42;;;;;;;3.85;3.28;;;;;;;23.71;46.83;101086.72;5065065;28;20088;-60
2022/06/30 03:09:08;;;;;;;3.90;2.58;;;;;;;23.76;46.68;101097.00;5048737;28;20084;-60
2022/06/30 03:11:33;;;;;;;3.45;3.10;;;;;;;23.74;46.58;101099.88;5080875;28;20017;-60
2022/06/30 03:13:58;;;;;;;3.13;2.83;;;;;;;23.74;46.55;101097.19;5085190;28;20093;-60
2022/06/30 03:16:23;;;;;;;4.03;3.28;;;;;;;23.73;46.63;101105.53;5086264;28;20040;-60
2022/06/30 03:18:49;;;;;;;3.33;3.03;;;;;;;23.71;46.63;101094.88;5086069;28;20040;-59
2022/06/30 03:21:14;;;;;;;5.03;3.25;;;;;;;23.72;46.54;101093.00;5085242;28;20046;-59
2022/06/30 03:23:39;;;;;;;4.32;3.03;;;;;;;23.70;46.71;101085.03;5084944;28;20023;-59
2022/06/30 03:26:05;;;;;;;4.72;3.03;;;;;;;23.68;46.86;101078.97;5084953;28;20050;-59
2022/06/30 03:28:31;;;;;;;5.85;3.70;;;;;;;23.53;46.58;101056.47;5085975;28;20025;-59
2022/06/30 03:30:56;;;;;;;5.20;3.63;;;;;;;23.49;46.81;101052.44;5068155;28;20050;-59
2022/06/30 03:33:22;;;;;;;3.65;3.10;;;;;;;23.47;46.85;101051.81;5067707;28;20384;-60
2022/06/30 03:35:47;;;;;;;3.50;3.17;;;;;;;23.69;46.88;101089.63;5068239;28;20027;-59
2022/06/30 03:38:13;;;;;;;3.75;3.45;;;;;;;23.70;46.90;101093.16;5084586;28;20020;-60
2022/06/30 03:40:38;;;;;;;3.45;3.08;;;;;;;23.69;46.91;101095.06;5084659;28;20273;-60
2022/06/30 03:43:04;;;;;;;3.63;3.33;;;;;;;23.49;46.75;101047.88;5084592;28;20542;-59
2022/06/30 03:45:29;;;;;;;3.60;3.30;;;;;;;23.43;46.78;101041.34;5085925;28;20044;-59
2022/06/30 03:47:55;;;;;;;3.35;2.85;;;;;;;23.47;46.86;101047.22;5067484;28;20028;-59
2022/06/30 03:50:20;;;;;;;3.75;3.35;;;;;;;23.44;46.83;101043.03;5084745;28;20435;-59
2022/06/30 03:52:46;;;;;;;4.68;3.85;;;;;;;23.67;46.98;101085.44;5084505;28;20016;-59
2022/06/30 03:55:12;;;;;;;4.00;3.20;;;;;;;23.66;46.72;101076.47;5084757;28;20428;-60
2022/06/30 03:57:37;;;;;;;4.18;3.60;;;;;;;23.46;46.78;101048.28;5084237;28;20522;-59
2022/06/30 04:00:03;;;;;;;4.90;3.33;;;;;;;23.45;46.79;101043.88;5084619;28;20032;-59
2022/06/30 04:02:29;;;;;;;3.40;3.10;;;;;;;23.65;46.56;101076.63;5083753;28;20028;-60
2022/06/30 04:04:54;;;;;;;3.58;3.13;;;;;;;23.62;46.95;101075.16;5085919;28;20020;-60
2022/06/30 04:07:19;;;;;;;3.33;3.03;;;;;;;23.37;46.87;101034.00;5085101;28;20033;-60
2022/06/30 04:09:45;;;;;;;3.40;3.10;;;;;;;23.59;46.76;101064.66;5066624;28;20016;-60
2022/06/30 04:12:10;;;;;;;3.72;3.33;;;;;;;23.44;46.95;101045.72;5063999;28;20504;-60
2022/06/30 04:14:35;;;;;;;3.38;2.85;;;;;;;23.64;46.77;101072.22;5064132;28;20025;-60
2022/06/30 04:17:00;;;;;;;4.00;3.13;;;;;;;23.44;46.97;101045.72;5063900;28;20028;-60
2022/06/30 04:19:26;;;;;;;4.85;3.30;;;;;;;23.64;46.87;101077.66;5064132;28;20051;-59
2022/06/30 04:21:52;;;;;;;4.00;3.60;;;;;;;23.63;46.88;101081.41;5064759;28;20025;-60
2022/06/30 04:24:17;;;;;;;4.88;3.60;;;;;;;23.63;46.85;101073.25;5064164;28;20052;-60
2022/06/30 04:26:42;;;;;;;4.90;3.40;;;;;;;23.44;46.87;101039.47;5065277;28;20021;-60
2022/06/30 04:29:07;;;;;;;3.78;3.47;;;;;;;23.40;46.92;101044.44;5064046;28;20032;-60
2022/06/30 04:34:17;;;;;;;3.75;3.40;;;;;;;23.40;47.04;101036.31;5065182;28;20032;-60
2022/06/30 04:36:42;;;;;;;4.25;3.72;;;;;;;23.59;47.08;101067.38;5063766;28;20029;-60
2022/06/30 04:39:07;;;;;;;4.65;3.45;;;;;;;23.59;47.26;101072.81;5065292;28;20484;-60
2022/06/30 04:41:32;;;;;;;3.53;3.22;;;;;;;23.60;47.45;101062.78;5063602;28;20040;-60
2022/06/30 04:43:59;;;;;;;3.80;3.40;;;;;;;23.60;47.26;101068.22;5065189;28;20025;-60
2022/06/30 04:46:25;;;;;;;4.80;3.30;;;;;;;23.59;47.42;101059.25;5063920;28;20051;-60
2022/06/30 04:48:51;;;;;;;6.63;3.78;;;;;;;23.58;47.27;101057.56;5063353;28;20020;-59
2022/06/30 04:51:16;;;;;;;3.67;3.33;;;;;;;23.38;47.30;101019.41;5047093;28;20035;-59
2022/06/30 04:53:42;;;;;;;3.67;3.30;;;;;;;23.44;47.28;101029.47;5065135;28;20024;-59
2022/06/30 04:56:08;;;;;;;3.25;2.95;;;;;;;23.58;47.35;101052.13;5068598;28;20390;-59
2022/06/30 04:58:33;;;;;;;3.53;3.20;;;;;;;23.57;47.55;101041.47;5070813;28;20059;-59
2022/06/30 05:00:59;;;;;;;3.40;3.10;;;;;;;23.59;47.38;101036.69;5074293;28;20037;-60
2022/06/30 05:03:25;;;;;;;3.40;3.10;;;;;;;23.42;47.30;101004.41;5072789;28;20033;-60
2022/06/30 05:05:50;;;;;;;4.00;3.53;;;;;;;23.36;47.38;100994.34;5074047;28;20017;-59
2022/06/30 05:08:15;;;;;;;4.22;3.83;;;;;;;23.58;47.53;101035.03;5066863;28;20112;-59
2022/06/30 05:10:41;;;;;;;4.00;3.60;;;;;;;23.38;47.53;101002.28;5072303;28;20088;-60
2022/06/30 05:13:07;;;;;;;4.00;3.53;;;;;;;23.58;47.63;101032.31;5083111;28;20473;-59
2022/06/30 05:15:33;;;;;;;4.32;3.30;;;;;;;23.58;47.70;101044.00;5084069;28;20012;-59
2022/06/30 05:17:58;;;;;;;4.30;3.90;;;;;;;23.39;47.81;101002.06;5084108;28;20084;-60
2022/06/30 05:20:24;;;;;;;3.88;3.50;;;;;;;23.63;47.80;101046.13;5084780;28;20033;-59
2022/06/30 05:22:49;;;;;;;3.97;3.55;;;;;;;23.62;47.73;101048.00;5084724;28;20036;-59
2022/06/30 05:27:58;;;;;;;5.00;3.88;;;;;;;23.63;47.99;101037.97;5083331;28;20032;-59
2022/06/30 05:30:24;;;;;;;4.40;3.70;;;;;;;23.64;47.79;101042.38;5084655;28;20033;-60
2022/06/30 05:32:49;;;;;;;4.47;4.07;;;;;;;23.64;47.99;101043.19;5084194;28;20040;-60
2022/06/30 05:35:15;;;;;;;4.50;4.10;;;;;;;23.65;47.93;101044.06;5087624;28;20058;-60
2022/06/30 05:37:40;;;;;;;3.70;3.40;;;;;;;23.65;48.22;101042.19;5086397;28;20470;-59
2022/06/30 05:40:06;;;;;;;4.35;3.58;;;;;;;23.66;48.11;101038.47;5088187;28;20028;-60
2022/06/30 05:42:31;;;;;;;3.92;3.50;;;;;;;23.66;47.92;101043.03;5087742;28;20071;-60
2022/06/30 05:44:57;;;;;;;4.43;3.78;;;;;;;23.66;48.03;101037.59;5088146;28;20024;-59
2022/06/30 05:47:22;;;;;;;5.30;3.95;;;;;;;23.66;48.07;101043.03;5069234;28;20028;-59
2022/06/30 05:49:47;;;;;;;4.85;4.22;;;;;;;23.67;48.33;101036.59;5086987;28;20029;-59
2022/06/30 05:52:13;;;;;;;4.57;3.65;;;;;;;23.51;48.34;101013.25;5088133;28;20046;-59
2022/06/30 05:54:38;;;;;;;4.85;4.07;;;;;;;23.68;48.44;101046.41;5088295;28;20020;-59
2022/06/30 05:57:04;;;;;;;5.95;4.53;;;;;;;23.69;48.25;101048.91;5087631;28;20036;-60
2022/06/30 05:59:32;;;;;;;3.97;3.58;;;;;;;23.69;48.30;101043.47;5086870;28;20565;-59
2022/06/30 06:01:57;;;;;;;4.55;4.15;;;;;;;23.71;48.62;101035.16;5087291;28;20042;-60
2022/06/30 06:04:22;;;;;;;5.18;4.38;;;;;;;23.71;48.36;101029.72;5086687;28;20056;-60
2022/06/30 06:06:47;;;;;;;5.97;4.88;;;;;;;23.71;48.53;101024.28;5087516;28;20120;-60
2022/06/30 06:09:13;;;;;;;5.22;4.22;;;;;;;23.72;48.55;101028.69;5086645;28;20029;-60
2022/06/30 06:11:38;;;;;;;4.30;3.90;;;;;;;23.72;48.78;101025.13;5070573;28;20112;-60
2022/06/30 06:14:04;;;;;;;5.03;4.53;;;;;;;23.73;48.40;101032.22;5066353;28;20021;-60
2022/06/30 06:16:29;;;;;;;5.13;4.43;;;;;;;23.48;48.30;100994.63;5066284;28;20021;-60
2022/06/30 06:18:54;;;;;;;4.78;4.28;;;;;;;23.73;48.75;101033.06;5065990;28;20074;-60
2022/06/30 06:21:19;;;;;;;9.18;5.50;;;;;;;23.54;48.82;101009.31;5067560;28;20055;-60
2022/06/30 06:23:45;;;;;;;5.53;5.03;;;;;;;23.55;48.75;101010.97;5066065;28;20442;-60
2022/06/30 06:26:10;;;;;;;5.00;4.50;;;;;;;23.73;48.65;101034.94;5067507;28;20029;-59
2022/06/30 06:31:19;;;;;;;5.93;4.78;;;;;;;23.53;48.84;101003.00;5067103;28;20031;-60
2022/06/30 06:33:46;;;;;;;5.82;5.22;;;;;;;23.69;48.69;101035.31;5067006;28;20029;-59
2022/06/30 06:36:11;;;;;;;5.53;5.03;;;;;;;23.75;48.90;101030.16;5067330;28;20025;-60
2022/06/30 06:38:37;;;;;;;5.10;4.30;;;;;;;23.73;48.78;101038.50;5048945;28;20032;-59
2022/06/30 06:41:04;;;;;;;5.53;5.03;;;;;;;23.68;48.86;101032.81;5065588;28;20134;-59
2022/06/30 06:43:30;;;;;;;6.50;5.50;;;;;;;23.76;48.92;101050.84;5065360;28;20121;-59
2022/06/30 06:45:55;;;;;;;5.72;4.78;;;;;;;23.76;48.88;101043.53;5066696;28;20462;-59
2022/06/30 06:48:22;;;;;;;5.28;4.63;;;;;;;23.78;48.62;101048.75;5064901;28;20025;-60
2022/06/30 06:50:47;;;;;;;7.40;5.63;;;;;;;23.77;48.88;101044.38;5066819;28;20028;-59
2022/06/30 06:53:12;;;;;;;6.22;5.30;;;;;;;23.77;49.36;101047.91;5066659;28;20029;-60
2022/06/30 06:55:37;;;;;;;6.00;5.13;;;;;;;23.80;48.88;101055.69;5048853;28;20045;-60
2022/06/30 06:58:05;;;;;;;6.00;5.40;;;;;;;23.60;48.88;101022.06;5066438;28;20084;-60
2022/06/30 07:00:30;;;;;;;7.78;5.13;;;;;;;23.81;49.13;101060.06;5064980;28;20537;-60
2022/06/30 07:02:56;;;;;;;6.20;5.60;;;;;;;23.82;49.17;101058.19;5064940;28;20032;-60
2022/06/30 07:05:21;;;;;;;6.43;5.82;;;;;;;23.63;49.33;101024.41;5065662;28;20036;-60
2022/06/30 07:07:48;;;;;;;8.07;5.75;;;;;;;23.79;49.11;101051.28;5066083;28;20025;-60
2022/06/30 07:10:14;;;;;;;6.50;5.90;;;;;;;23.84;49.15;101064.28;5070323;28;20028;-59
2022/06/30 07:12:39;;;;;;;6.35;5.70;;;;;;;23.64;49.17;101043.19;5086266;28;20028;-60
2022/06/30 07:15:05;;;;;;;6.88;6.10;;;;;;;23.84;49.34;101062.41;5086600;28;20032;-60
2022/06/30 07:17:36;;;;;;;6.30;5.45;;;;;;;23.85;49.39;101066.78;5084639;28;20037;-60
2022/06/30 07:20:01;;;;;;;6.45;5.85;;;;;;;23.66;49.42;101032.16;5086310;28;20035;-60
2022/06/30 07:22:26;;;;;;;6.25;5.63;;;;;;;23.87;49.56;101047.56;5085968;28;20029;-59
2022/06/30 07:24:51;;;;;;;6.57;5.38;;;;;;;23.85;49.58;101044.22;5086186;28;20061;-59
2022/06/30 07:27:17;;;;;;;6.07;5.47;;;;;;;23.87;49.63;101053.88;5084827;28;20023;-59
2022/06/30 07:29:42;;;;;;;5.95;5.35;;;;;;;23.70;49.49;101041.59;5086166;28;20050;-60
2022/06/30 07:32:08;;;;;;;6.18;5.57;;;;;;;23.88;49.52;101058.25;5084248;28;20024;-59
2022/06/30 07:34:33;;;;;;;6.43;5.45;;;;;;;23.89;49.56;101059.09;5086154;28;20073;-59
2022/06/30 07:36:58;;;;;;;6.43;5.65;;;;;;;23.73;49.83;101034.94;5084555;28;20540;-59
2022/06/30 07:39:23;;;;;;;6.90;6.20;;;;;;;23.89;49.56;101064.50;5084586;28;20132;-59
2022/06/30 07:41:49;;;;;;;5.78;5.18;;;;;;;23.91;49.62;101078.72;5085406;28;20091;-59
2022/06/30 07:44:14;;;;;;;7.03;5.60;;;;;;;23.69;49.65;101037.22;5085798;28;20071;-60
2022/06/30 07:46:39;;;;;;;5.85;5.25;;;;;;;23.75;49.54;101043.75;5085910;28;20028;-59
2022/06/30 07:49:05;;;;;;;6.05;5.43;;;;;;;23.95;49.67;101074.56;5085092;28;20085;-59
2022/06/30 07:51:30;;;;;;;5.25;4.75;;;;;;;23.90;49.87;101077.88;5085559;28;20031;-59
2022/06/30 07:53:55;;;;;;;5.80;5.30;;;;;;;23.98;49.83;101086.94;5067544;28;20020;-59
2022/06/30 07:56:20;;;;;;;6.05;5.45;;;;;;;23.99;49.82;101089.44;5085293;28;20082;-59
2022/06/30 07:58:47;;;;;;;5.93;5.38;;;;;;;23.95;49.77;101082.72;5084014;28;20028;-59
2022/06/30 08:01:12;;;;;;;6.10;5.50;;;;;;;23.83;49.72;101058.00;5085680;28;20032;-60
2022/06/30 08:03:38;;;;;;;4.78;4.38;;;;;;;24.04;49.52;101095.09;5085228;28;20028;-60
2022/06/30 08:06:04;;;;;;;5.38;4.88;;;;;;;23.83;49.41;101057.13;5084589;28;20027;-60
2022/06/30 08:08:29;;;;;;;5.93;5.03;;;;;;;23.84;49.17;101054.25;5083893;28;20452;-60
2022/06/30 08:10:54;;;;;;;5.72;5.07;;;;;;;24.08;49.28;101101.00;5074811;28;20025;-60
2022/06/30 08:13:20;;;;;;;5.10;4.70;;;;;;;24.09;49.06;101097.25;5064056;28;20081;-60
2022/06/30 08:15:45;;;;;;;5.65;5.05;;;;;;;24.07;49.35;101100.16;5064058;28;20033;-60
2022/06/30 08:18:10;;;;;;;5.10;4.63;;;;;;;23.88;49.13;101066.41;5064697;28;20033;-60
2022/06/30 08:20:37;;;;;;;6.05;5.25;;;;;;;24.12;48.79;101105.81;5063844;28;20035;-60
2022/06/30 08:23:02;;;;;;;5.28;4.78;;;;;;;23.92;49.19;101073.09;5047267;28;20025;-60
2022/06/30 08:25:28;;;;;;;4.90;4.40;;;;;;;23.96;48.96;101076.28;5065073;28;20044;-60
2022/06/30 08:27:53;;;;;;;6.07;5.47;;;;;;;24.16;48.91;101103.56;5063616;28;20032;-60
2022/06/30 08:30:19;;;;;;;5.22;4.72;;;;;;;23.98;48.91;101074.19;5065205;28;20042;-60
2022/06/30 08:32:44;;;;;;;5.00;4.55;;;;;;;23.93;48.94;101069.34;5064527;28;20037;-60
2022/06/30 08:35:10;;;;;;;5.28;4.78;;;;;;;24.17;48.65;101100.66;5065488;28;20029;-60
2022/06/30 08:37:35;;;;;;;4.90;4.50;;;;;;;24.00;48.95;101074.84;5064950;28;20410;-60
2022/06/30 08:42:46;;;;;;;5.05;4.55;;;;;;;24.22;48.52;101101.94;5063695;28;20036;-60
2022/06/30 08:45:17;;;;;;;5.20;4.70;;;;;;;24.20;48.51;101100.25;5063722;28;20085;-60
2022/06/30 08:47:45;;;;;;;5.97;4.65;;;;;;;24.20;48.72;101108.38;5063168;28;20033;-60
2022/06/30 08:50:11;;;;;;;4.67;4.27;;;;;;;24.24;48.71;101113.44;5063881;28;20021;-60
2022/06/30 08:52:46;;;;;;;5.18;4.68;;;;;;;24.19;48.55;101106.72;5063778;28;20029;-60
2022/06/30 08:55:15;;;;;;;5.72;5.13;;;;;;;24.04;48.63;101078.81;5065081;28;20020;-60
2022/06/30 08:57:42;;;;;;;5.28;4.40;;;;;;;24.24;48.61;101119.69;5063386;28;20028;-60
2022/06/30 09:00:09;;;;;;;6.00;4.75;;;;;;;24.26;48.53;101117.63;5064786;28;20040;-60
2022/06/30 09:02:34;;;;;;;5.97;4.80;;;;;;;24.28;48.69;101122.88;5062995;28;20436;-60
2022/06/30 09:05:00;;;;;;;5.80;5.22;;;;;;;24.29;48.53;101124.53;5064854;28;20088;-60
2022/06/30 09:07:25;;;;;;;5.13;4.43;;;;;;;24.28;48.30;101110.13;5064444;28;20029;-60
2022/06/30 09:09:50;;;;;;;5.10;4.55;;;;;;;24.29;48.44;101119.09;5069208;28;20052;-60
2022/06/30 09:12:17;;;;;;;5.18;4.68;;;;;;;24.29;48.37;101122.66;5087166;28;20168;-60
2022/06/30 09:14:47;;;;;;;5.05;4.57;;;;;;;24.30;48.55;101108.06;5087639;28;20013;-60
2022/06/30 09:17:14;;;;;;;5.80;4.75;;;;;;;24.14;48.51;101086.63;5088164;28;20032;-60
2022/06/30 09:20:08;;;;;;;5.28;4.80;;;;;;;24.32;48.53;101110.56;5088666;28;20032;-60
2022/06/30 09:22:35;;;;;;;6.13;4.93;;;;;;;24.30;48.46;101108.06;5087327;28;20029;-60
2022/06/30 09:25:04;;;;;;;4.97;4.57;;;;;;;24.10;48.46;101071.75;5088503;28;20051;-60
2022/06/30 09:27:31;;;;;;;5.40;4.53;;;;;;;24.34;48.47;101100.31;5087051;28;20046;-60
2022/06/30 09:30:07;;;;;;;5.32;4.72;;;;;;;24.34;48.43;101105.75;5087460;28;20033;-60
2022/06/30 09:32:50;;;;;;;5.50;4.93;;;;;;;24.35;48.43;101099.28;5087920;28;20035;-60
2022/06/30 09:35:17;;;;;;;5.05;4.50;;;;;;;24.12;48.32;101072.38;5070553;28;20031;-60
2022/06/30 09:37:42;;;;;;;4.95;4.45;;;;;;;24.33;48.26;101107.63;5087977;28;20028;-60
2022/06/30 09:40:09;;;;;;;5.00;4.50;;;;;;;24.37;48.35;101116.22;5087038;28;20025;-60
2022/06/30 09:42:40;;;;;;;5.05;4.20;;;;;;;24.38;48.26;101113.38;5087990;28;20024;-60
2022/06/30 09:45:08;;;;;;;4.80;4.40;;;;;;;24.39;48.18;101116.91;5088002;28;20024;-60
2022/06/30 09:47:34;;;;;;;4.93;4.38;;;;;;;24.40;48.43;101102.28;5086326;28;20058;-60
2022/06/30 09:50:05;;;;;;;4.78;4.35;;;;;;;24.41;48.25;101109.38;5086866;28;20024;-60
2022/06/30 09:52:31;;;;;;;6.78;4.50;;;;;;;24.42;48.27;101108.34;5086795;28;20146;-60
2022/06/30 09:54:59;;;;;;;4.57;4.13;;;;;;;24.44;48.26;101114.44;5069999;28;20016;-60
2022/06/30 09:57:45;;;;;;;4.97;4.47;;;;;;;24.44;48.23;101111.72;5069393;28;20066;-60
2022/06/30 10:00:11;;;;;;;4.60;4.20;;;;;;;24.47;48.13;101110.44;5086239;28;20696;-60
2022/06/30 10:02:40;;;;;;;7.55;4.68;;;;;;;24.45;48.28;101105.22;5085862;28;20029;-60
2022/06/30 10:05:06;;;;;;;5.28;4.30;;;;;;;24.44;48.15;101103.56;5086592;28;20029;-60
2022/06/30 10:07:35;;;;;;;4.63;4.03;;;;;;;24.48;48.33;101106.72;5069312;28;20035;-60
2022/06/30 10:10:21;;;;;;;5.45;3.95;;;;;;;24.50;48.17;101110.06;5083307;28;20017;-59
2022/06/30 10:12:46;;;;;;;4.70;4.20;;;;;;;24.34;48.03;101081.28;5066965;28;20086;-60
2022/06/30 10:15:13;;;;;;;5.45;3.88;;;;;;;24.51;48.07;101101.72;5066427;28;20025;-60
2022/06/30 10:17:47;;;;;;;4.95;4.20;;;;;;;24.52;48.13;101103.41;5066656;28;20811;-60
2022/06/30 10:20:13;;;;;;;4.70;3.67;;;;;;;24.51;47.81;101104.44;5065868;28;20024;-60
2022/06/30 10:22:39;;;;;;;4.50;4.00;;;;;;;24.54;48.11;101103.19;5066037;28;20021;-59
2022/06/30 10:25:05;;;;;;;4.55;3.95;;;;;;;24.55;48.11;101103.00;5067660;28;20036;-60
2022/06/30 10:27:30;;;;;;;4.43;3.92;;;;;;;24.55;48.17;101100.28;5065833;28;20028;-60
2022/06/30 10:30:00;;;;;;;5.03;4.10;;;;;;;24.57;47.91;101109.06;5049718;28;20022;-60
2022/06/30 10:32:56;;;;;;;5.15;3.67;;;;;;;24.58;48.17;101099.84;5065425;28;20029;-60
2022/06/30 10:35:56;;;;;;;4.78;4.15;;;;;;;24.60;47.99;101095.06;5067348;28;20474;-60
2022/06/30 10:38:49;;;;;;;4.35;3.95;;;;;;;24.62;47.92;101100.28;5043751;28;20047;-61
2022/06/30 10:41:15;;;;;;;4.05;3.60;;;;;;;24.62;47.98;101094.84;5065538;28;20494;-60
2022/06/30 10:44:03;;;;;;;3.88;3.47;;;;;;;24.63;47.98;101094.66;5065428;28;20025;-60
2022/06/30 10:46:29;;;;;;;4.22;3.80;;;;;;;24.65;47.97;101102.63;5066540;28;20032;-60
2022/06/30 10:48:54;;;;;;;4.03;3.50;;;;;;;24.65;47.88;101099.91;5066528;28;20116;-60
2022/06/30 10:51:21;;;;;;;4.45;3.47;;;;;;;24.65;47.93;101103.47;5065681;28;20025;-60
2022/06/30 10:53:49;;;;;;;4.60;3.58;;;;;;;24.31;48.06;101051.81;5065563;28;20029;-60
2022/06/30 10:56:14;;;;;;;3.78;3.40;;;;;;;24.50;47.64;101069.28;5066712;28;20043;-60
2022/06/30 10:59:04;;;;;;;3.88;3.47;;;;;;;24.69;47.87;101101.19;5066398;28;20033;-60
2022/06/30 11:01:30;;;;;;;4.07;3.67;;;;;;;24.70;48.01;101105.56;5066539;28;20032;-60
2022/06/30 11:03:56;;;;;;;4.93;3.72;;;;;;;24.70;47.96;101111.00;5066375;28;20025;-60
2022/06/30 11:06:23;;;;;;;4.10;3.50;;;;;;;24.71;47.85;101098.25;5066526;28;20021;-60
2022/06/30 11:08:49;;;;;;;3.95;3.30;;;;;;;24.73;47.89;101107.06;5064841;28;20032;-60
2022/06/30 11:11:24;;;;;;;4.82;3.38;;;;;;;24.73;47.92;101099.72;5079737;28;20027;-59
2022/06/30 11:14:20;;;;;;;4.35;3.25;;;;;;;24.74;47.87;101100.56;5084974;28;20032;-60
2022/06/30 11:16:47;;;;;;;4.18;3.20;;;;;;;24.75;47.82;101091.34;5086020;28;20047;-60
2022/06/30 11:19:16;;;;;;;3.60;3.30;;;;;;;24.77;47.72;101094.72;5086068;28;20032;-60
2022/06/30 11:21:43;;;;;;;3.63;3.28;;;;;;;24.80;47.84;101094.31;5084879;28;20059;-60
2022/06/30 11:24:10;;;;;;;3.50;3.20;;;;;;;24.79;47.94;101093.47;5068421;28;20078;-59
2022/06/30 11:29:20;;;;;;;3.72;3.17;;;;;;;24.82;47.81;101093.06;5085122;28;20082;-60
2022/06/30 11:31:46;;;;;;;5.40;3.50;;;;;;;24.84;47.77;101090.13;5083540;28;20021;-60
2022/06/30 11:34:14;;;;;;;4.85;3.13;;;;;;;24.84;47.91;101098.28;5085939;28;20099;-60
2022/06/30 11:36:41;;;;;;;3.45;3.08;;;;;;;24.86;47.82;101098.94;5085746;28;20085;-59
2022/06/30 11:39:09;;;;;;;4.43;3.40;;;;;;;24.86;47.85;101094.34;5084728;28;20031;-60